Stone Ridge, NY

1:54 PM EDT on October 23, 2014 (GMT -0400)
The Vly | Change Station
CLOSE
Current Station
Personal Weather Station
Location: Stone Ridge, NY
Elevation: 880 ft
Nearby Weather Stations

Elev 880 ft 41.89 °N, 74.21 °W | Updated 2 seconds ago

Rain
Rain
48.5 °F
Feels Like 48 °F
N
0.0
Wind Variable Wind from NW
Gusts 4.0 mph

Today
High -- | Low -- °F
--% Chance of Precip.
Yesterday
High -- | Low -- °F
Precip. -- in
7:18 AM 6:03 PM
Waning Crescent, 0% visible
Pressure 29.74 in
Visibility 8.0 miles
Clouds Mostly Cloudy 800 ft
Overcast 2600 ft
Windchill 48 °F
Dew Point 47 °F
Humidity 93%
Rainfall 0.68 in
Snow Depth Not available.
UV 1 out of 12
Pollen .10 out of 12
PM2.5 Good
Flu Activity Sporadic
SPECI KMGJ 231744Z AUTO 02005KT 8SM -RA BKN008 OVC026 11/09 A2974 RMK AO2 P0003 T01110094 TSNO

More Conditions Fewer Conditions

Pressure 29.74 in
Visibility 8.0 miles
Clouds Mostly Cloudy 800 ft
Overcast 2600 ft
Windchill 48 °F
Dew Point 47 °F
Humidity 93%
Rainfall 0.68 in
Snow Depth Not available.
UV 1 out of 12
Pollen .10 out of 12
PM2.5 Good
Flu Activity Sporadic
SPECI KMGJ 231744Z AUTO 02005KT 8SM -RA BKN008 OVC026 11/09 A2974 RMK AO2 P0003 T01110094 TSNO

More Conditions Fewer Conditions

10-Day Weather Forecast

Almanac

Astronomy

Oct. 23, 2014 Rise Set
Actual Time 7:18 AM EDT 6:03 PM EDT
Civil Twilight 6:50 AM EDT 6:31 PM EDT
Nautical Twilight 6:17 AM EDT 7:04 PM EDT
Astronomical Twilight 5:45 AM EDT 7:36 PM EDT
Moon 6:55 AM EDT 6:03 PM EDT
Length of Visible Light 11h 41m
Length of Day
10h 44m
Tomorrow will be 2m 37s shorter.
Waning Crescent, 0% of the Moon is Illuminated
Today
Waning Crescent
Oct 23
New
Oct 30
First Quarter
Nov 6
Full
Nov 14
Last Quarter

Today's Extremes

State Highs State Lows

Community

WunderPhotos

Upload Photos

1,764,322 photos uploaded!

WunderBlogs® & News

By Dr. Jeff Masters
Director of Meteorology, Weather Underground
By Kari Strenfel
Meteorologist, Weather Underground
By Christopher C. Burt
Weather Historian, Weather Underground
October 23, 2014
October 23, 2014
October 23, 2014

Nearby

Air Quality

  Air Quality AQ Index Pollutant
Yesterday Good
OZONE
Yesterday Good
PM2.5
Current Good
PM2.5
Thursday Good
PM2.5

Snow Depth

Station Depth Elevation
No new snow has been reported.

Earthquake Activity

City Distance Mag. Time & Date
No recent earthquake activity has been reported nearby.
Minimum magnitude displayed is 2.5.

Coastal Water Temperatures

Place Temperature
No Stations Reporting

Nearby Weather Stations